sensor_id;sensor_type;location;lat;lon;timestamp;P1;durP1;ratioP1;P2;durP2;ratioP2
19038;SDS011;9652;49.014;12.052;2022-12-18T00:01:21;42.30;;;18.23;;
19038;SDS011;9652;49.014;12.052;2022-12-18T00:03:50;34.57;;;17.43;;
19038;SDS011;9652;49.014;12.052;2022-12-18T00:06:19;29.93;;;16.33;;
19038;SDS011;9652;49.014;12.052;2022-12-18T00:08:47;30.27;;;15.77;;
19038;SDS011;9652;49.014;12.052;2022-12-18T00:11:16;35.33;;;17.93;;
19038;SDS011;9652;49.014;12.052;2022-12-18T00:13:46;35.50;;;16.53;;
19038;SDS011;9652;49.014;12.052;2022-12-18T00:16:14;30.40;;;15.33;;
19038;SDS011;9652;49.014;12.052;2022-12-18T00:18:46;41.20;;;16.03;;
19038;SDS011;9652;49.014;12.052;2022-12-18T00:21:14;35.87;;;16.17;;
19038;SDS011;9652;49.014;12.052;2022-12-18T00:23:43;31.60;;;17.00;;
19038;SDS011;9652;49.014;12.052;2022-12-18T00:26:11;36.53;;;18.23;;
19038;SDS011;9652;49.014;12.052;2022-12-18T00:28:43;30.07;;;15.07;;
19038;SDS011;9652;49.014;12.052;2022-12-18T00:31:12;32.37;;;16.80;;
19038;SDS011;9652;49.014;12.052;2022-12-18T00:33:43;30.57;;;16.10;;
19038;SDS011;9652;49.014;12.052;2022-12-18T00:36:12;33.97;;;16.67;;
19038;SDS011;9652;49.014;12.052;2022-12-18T00:38:43;40.03;;;17.00;;
19038;SDS011;9652;49.014;12.052;2022-12-18T00:41:12;37.53;;;16.10;;
19038;SDS011;9652;49.014;12.052;2022-12-18T00:44:05;32.63;;;14.63;;
19038;SDS011;9652;49.014;12.052;2022-12-18T00:46:33;35.73;;;16.27;;
19038;SDS011;9652;49.014;12.052;2022-12-18T00:49:00;34.17;;;16.73;;
19038;SDS011;9652;49.014;12.052;2022-12-18T00:51:27;32.30;;;15.13;;
19038;SDS011;9652;49.014;12.052;2022-12-18T00:53:55;31.03;;;15.30;;
19038;SDS011;9652;49.014;12.052;2022-12-18T00:56:22;34.87;;;16.10;;
19038;SDS011;9652;49.014;12.052;2022-12-18T00:58:51;30.07;;;15.73;;
19038;SDS011;9652;49.014;12.052;2022-12-18T01:01:20;30.37;;;15.87;;
19038;SDS011;9652;49.014;12.052;2022-12-18T01:03:48;30.63;;;15.77;;
19038;SDS011;9652;49.014;12.052;2022-12-18T01:06:16;28.13;;;14.90;;
19038;SDS011;9652;49.014;12.052;2022-12-18T01:08:43;28.27;;;14.63;;
19038;SDS011;9652;49.014;12.052;2022-12-18T01:11:12;27.17;;;14.53;;
19038;SDS011;9652;49.014;12.052;2022-12-18T01:13:42;34.70;;;15.73;;
19038;SDS011;9652;49.014;12.052;2022-12-18T01:16:11;34.37;;;14.60;;
19038;SDS011;9652;49.014;12.052;2022-12-18T01:18:40;26.83;;;15.90;;
19038;SDS011;9652;49.014;12.052;2022-12-18T01:21:08;27.27;;;14.50;;
19038;SDS011;9652;49.014;12.052;2022-12-18T01:23:38;26.77;;;14.07;;
19038;SDS011;9652;49.014;12.052;2022-12-18T01:26:06;25.33;;;13.47;;
19038;SDS011;9652;49.014;12.052;2022-12-18T01:28:35;31.73;;;15.87;;
19038;SDS011;9652;49.014;12.052;2022-12-18T01:31:14;33.70;;;16.03;;
19038;SDS011;9652;49.014;12.052;2022-12-18T01:33:46;29.47;;;15.77;;
19038;SDS011;9652;49.014;12.052;2022-12-18T01:36:15;29.10;;;14.40;;
19038;SDS011;9652;49.014;12.052;2022-12-18T01:38:44;33.53;;;14.83;;
19038;SDS011;9652;49.014;12.052;2022-12-18T01:41:12;31.47;;;14.90;;
19038;SDS011;9652;49.014;12.052;2022-12-18T01:43:43;29.10;;;16.10;;
19038;SDS011;9652;49.014;12.052;2022-12-18T01:46:14;30.67;;;15.97;;
19038;SDS011;9652;49.014;12.052;2022-12-18T01:48:43;33.73;;;14.80;;
19038;SDS011;9652;49.014;12.052;2022-12-18T01:51:15;30.27;;;14.83;;
19038;SDS011;9652;49.014;12.052;2022-12-18T01:53:43;32.20;;;16.13;;
19038;SDS011;9652;49.014;12.052;2022-12-18T01:56:13;31.00;;;15.07;;
19038;SDS011;9652;49.014;12.052;2022-12-18T01:58:46;26.90;;;15.57;;
19038;SDS011;9652;49.014;12.052;2022-12-18T02:01:21;38.90;;;16.57;;
19038;SDS011;9652;49.014;12.052;2022-12-18T02:03:51;31.00;;;15.40;;
19038;SDS011;9652;49.014;12.052;2022-12-18T02:06:21;28.33;;;16.97;;
19038;SDS011;9652;49.014;12.052;2022-12-18T02:09:00;34.97;;;15.07;;
19038;SDS011;9652;49.014;12.052;2022-12-18T02:11:39;31.60;;;15.83;;
19038;SDS011;9652;49.014;12.052;2022-12-18T02:14:17;33.20;;;16.57;;
19038;SDS011;9652;49.014;12.052;2022-12-18T02:16:56;29.00;;;14.57;;
19038;SDS011;9652;49.014;12.052;2022-12-18T02:19:43;30.27;;;15.97;;
19038;SDS011;9652;49.014;12.052;2022-12-18T02:22:29;34.53;;;15.73;;
19038;SDS011;9652;49.014;12.052;2022-12-18T02:25:16;35.87;;;15.47;;
19038;SDS011;9652;49.014;12.052;2022-12-18T02:28:00;30.07;;;15.67;;
19038;SDS011;9652;49.014;12.052;2022-12-18T02:30:33;29.13;;;15.43;;
19038;SDS011;9652;49.014;12.052;2022-12-18T02:33:04;32.80;;;15.47;;
19038;SDS011;9652;49.014;12.052;2022-12-18T02:35:34;38.83;;;16.73;;
19038;SDS011;9652;49.014;12.052;2022-12-18T02:38:07;31.10;;;14.67;;
19038;SDS011;9652;49.014;12.052;2022-12-18T02:40:36;33.03;;;15.80;;
19038;SDS011;9652;49.014;12.052;2022-12-18T02:43:08;30.87;;;15.57;;
19038;SDS011;9652;49.014;12.052;2022-12-18T02:45:45;28.50;;;14.67;;
19038;SDS011;9652;49.014;12.052;2022-12-18T02:48:15;32.90;;;14.53;;
19038;SDS011;9652;49.014;12.052;2022-12-18T02:50:48;30.50;;;15.93;;
19038;SDS011;9652;49.014;12.052;2022-12-18T02:53:30;30.57;;;14.97;;
19038;SDS011;9652;49.014;12.052;2022-12-18T02:56:07;27.77;;;13.33;;
19038;SDS011;9652;49.014;12.052;2022-12-18T02:58:47;26.53;;;14.37;;
19038;SDS011;9652;49.014;12.052;2022-12-18T03:01:42;28.27;;;13.83;;
19038;SDS011;9652;49.014;12.052;2022-12-18T03:04:20;24.40;;;13.17;;
19038;SDS011;9652;49.014;12.052;2022-12-18T03:06:54;22.97;;;13.53;;
19038;SDS011;9652;49.014;12.052;2022-12-18T03:09:27;21.73;;;12.13;;
19038;SDS011;9652;49.014;12.052;2022-12-18T03:12:02;23.07;;;14.77;;
19038;SDS011;9652;49.014;12.052;2022-12-18T03:14:56;24.13;;;13.13;;
19038;SDS011;9652;49.014;12.052;2022-12-18T03:17:31;23.50;;;12.80;;
19038;SDS011;9652;49.014;12.052;2022-12-18T03:20:02;25.50;;;13.07;;
19038;SDS011;9652;49.014;12.052;2022-12-18T03:22:35;26.23;;;13.90;;
19038;SDS011;9652;49.014;12.052;2022-12-18T03:25:05;25.40;;;14.63;;
19038;SDS011;9652;49.014;12.052;2022-12-18T03:27:38;26.50;;;13.83;;
19038;SDS011;9652;49.014;12.052;2022-12-18T03:30:16;21.80;;;11.63;;
19038;SDS011;9652;49.014;12.052;2022-12-18T03:32:46;25.80;;;13.87;;
19038;SDS011;9652;49.014;12.052;2022-12-18T03:35:22;25.50;;;12.93;;
19038;SDS011;9652;49.014;12.052;2022-12-18T03:37:55;26.03;;;14.23;;
19038;SDS011;9652;49.014;12.052;2022-12-18T03:40:25;21.10;;;12.23;;
19038;SDS011;9652;49.014;12.052;2022-12-18T03:43:07;20.17;;;12.20;;
19038;SDS011;9652;49.014;12.052;2022-12-18T03:45:46;24.20;;;12.90;;
19038;SDS011;9652;49.014;12.052;2022-12-18T03:48:21;23.57;;;13.23;;
19038;SDS011;9652;49.014;12.052;2022-12-18T03:51:05;25.40;;;13.80;;
19038;SDS011;9652;49.014;12.052;2022-12-18T03:53:40;24.03;;;13.63;;
19038;SDS011;9652;49.014;12.052;2022-12-18T03:56:19;28.33;;;13.40;;
19038;SDS011;9652;49.014;12.052;2022-12-18T03:58:53;26.27;;;13.77;;
19038;SDS011;9652;49.014;12.052;2022-12-18T04:01:28;24.90;;;13.00;;
19038;SDS011;9652;49.014;12.052;2022-12-18T04:04:01;26.40;;;14.07;;
19038;SDS011;9652;49.014;12.052;2022-12-18T04:06:34;21.93;;;12.23;;
19038;SDS011;9652;49.014;12.052;2022-12-18T04:09:03;21.67;;;12.90;;
19038;SDS011;9652;49.014;12.052;2022-12-18T04:11:35;20.30;;;11.27;;
19038;SDS011;9652;49.014;12.052;2022-12-18T04:14:04;20.37;;;12.03;;
19038;SDS011;9652;49.014;12.052;2022-12-18T04:16:32;21.50;;;12.43;;
19038;SDS011;9652;49.014;12.052;2022-12-18T04:19:02;18.93;;;10.40;;
19038;SDS011;9652;49.014;12.052;2022-12-18T04:21:36;23.30;;;12.10;;
19038;SDS011;9652;49.014;12.052;2022-12-18T04:24:04;21.57;;;12.57;;
19038;SDS011;9652;49.014;12.052;2022-12-18T04:26:34;24.80;;;12.43;;
19038;SDS011;9652;49.014;12.052;2022-12-18T04:29:30;24.63;;;13.23;;
19038;SDS011;9652;49.014;12.052;2022-12-18T04:31:59;24.57;;;13.67;;
19038;SDS011;9652;49.014;12.052;2022-12-18T04:34:28;22.27;;;12.57;;
19038;SDS011;9652;49.014;12.052;2022-12-18T04:36:56;23.67;;;12.93;;
19038;SDS011;9652;49.014;12.052;2022-12-18T04:39:24;23.17;;;12.83;;
19038;SDS011;9652;49.014;12.052;2022-12-18T04:41:54;25.33;;;14.30;;
19038;SDS011;9652;49.014;12.052;2022-12-18T04:44:22;21.47;;;13.63;;
19038;SDS011;9652;49.014;12.052;2022-12-18T04:46:49;23.23;;;13.00;;
19038;SDS011;9652;49.014;12.052;2022-12-18T04:49:17;21.77;;;13.07;;
19038;SDS011;9652;49.014;12.052;2022-12-18T04:51:44;21.90;;;13.17;;
19038;SDS011;9652;49.014;12.052;2022-12-18T04:54:11;26.13;;;12.87;;
19038;SDS011;9652;49.014;12.052;2022-12-18T04:56:39;25.57;;;13.73;;
19038;SDS011;9652;49.014;12.052;2022-12-18T04:59:06;24.20;;;12.17;;
19038;SDS011;9652;49.014;12.052;2022-12-18T05:01:33;22.97;;;12.33;;
19038;SDS011;9652;49.014;12.052;2022-12-18T05:04:00;22.30;;;12.57;;
19038;SDS011;9652;49.014;12.052;2022-12-18T05:06:28;19.80;;;12.23;;
19038;SDS011;9652;49.014;12.052;2022-12-18T05:08:55;22.43;;;15.13;;
19038;SDS011;9652;49.014;12.052;2022-12-18T05:11:23;20.83;;;12.00;;
19038;SDS011;9652;49.014;12.052;2022-12-18T05:13:50;23.77;;;12.83;;
19038;SDS011;9652;49.014;12.052;2022-12-18T05:16:17;26.77;;;12.63;;
19038;SDS011;9652;49.014;12.052;2022-12-18T05:18:44;20.77;;;12.60;;
19038;SDS011;9652;49.014;12.052;2022-12-18T05:21:11;20.33;;;11.67;;
19038;SDS011;9652;49.014;12.052;2022-12-18T05:23:40;20.83;;;11.97;;
19038;SDS011;9652;49.014;12.052;2022-12-18T05:26:07;20.27;;;11.70;;
19038;SDS011;9652;49.014;12.052;2022-12-18T05:28:35;20.90;;;11.73;;
19038;SDS011;9652;49.014;12.052;2022-12-18T05:31:03;20.33;;;11.80;;
19038;SDS011;9652;49.014;12.052;2022-12-18T05:33:31;21.67;;;12.00;;
19038;SDS011;9652;49.014;12.052;2022-12-18T05:36:01;21.43;;;11.93;;
19038;SDS011;9652;49.014;12.052;2022-12-18T05:38:31;20.57;;;10.83;;
19038;SDS011;9652;49.014;12.052;2022-12-18T05:41:02;21.90;;;11.77;;
19038;SDS011;9652;49.014;12.052;2022-12-18T05:43:30;22.67;;;11.53;;
19038;SDS011;9652;49.014;12.052;2022-12-18T05:45:57;21.60;;;11.43;;
19038;SDS011;9652;49.014;12.052;2022-12-18T05:48:29;26.50;;;14.13;;
19038;SDS011;9652;49.014;12.052;2022-12-18T05:50:56;24.07;;;13.73;;
19038;SDS011;9652;49.014;12.052;2022-12-18T05:53:32;23.97;;;13.07;;
19038;SDS011;9652;49.014;12.052;2022-12-18T05:56:01;22.67;;;13.20;;
19038;SDS011;9652;49.014;12.052;2022-12-18T05:58:30;23.60;;;13.40;;
19038;SDS011;9652;49.014;12.052;2022-12-18T06:01:05;24.87;;;12.33;;
19038;SDS011;9652;49.014;12.052;2022-12-18T06:03:35;24.23;;;13.93;;
19038;SDS011;9652;49.014;12.052;2022-12-18T06:06:02;24.23;;;13.30;;
19038;SDS011;9652;49.014;12.052;2022-12-18T06:08:30;24.53;;;13.50;;
19038;SDS011;9652;49.014;12.052;2022-12-18T06:10:57;25.93;;;12.33;;
19038;SDS011;9652;49.014;12.052;2022-12-18T06:13:26;20.63;;;12.30;;
19038;SDS011;9652;49.014;12.052;2022-12-18T06:15:53;27.50;;;13.03;;
19038;SDS011;9652;49.014;12.052;2022-12-18T06:18:20;26.53;;;13.13;;
19038;SDS011;9652;49.014;12.052;2022-12-18T06:20:53;24.17;;;14.00;;
19038;SDS011;9652;49.014;12.052;2022-12-18T06:23:21;28.83;;;14.27;;
19038;SDS011;9652;49.014;12.052;2022-12-18T06:25:49;22.93;;;12.37;;
19038;SDS011;9652;49.014;12.052;2022-12-18T06:28:16;22.43;;;13.43;;
19038;SDS011;9652;49.014;12.052;2022-12-18T06:30:45;24.97;;;12.93;;
19038;SDS011;9652;49.014;12.052;2022-12-18T06:33:14;27.63;;;13.63;;
19038;SDS011;9652;49.014;12.052;2022-12-18T06:35:42;22.13;;;13.33;;
19038;SDS011;9652;49.014;12.052;2022-12-18T06:38:09;25.87;;;13.97;;
19038;SDS011;9652;49.014;12.052;2022-12-18T06:40:36;25.50;;;11.93;;
19038;SDS011;9652;49.014;12.052;2022-12-18T06:43:05;27.97;;;14.00;;
19038;SDS011;9652;49.014;12.052;2022-12-18T06:45:33;25.07;;;13.40;;
19038;SDS011;9652;49.014;12.052;2022-12-18T06:48:01;23.97;;;13.07;;
19038;SDS011;9652;49.014;12.052;2022-12-18T06:50:29;21.17;;;11.03;;
19038;SDS011;9652;49.014;12.052;2022-12-18T06:52:56;27.33;;;12.10;;
19038;SDS011;9652;49.014;12.052;2022-12-18T06:55:23;22.27;;;12.43;;
19038;SDS011;9652;49.014;12.052;2022-12-18T06:57:50;24.93;;;12.90;;
19038;SDS011;9652;49.014;12.052;2022-12-18T07:00:17;25.60;;;13.30;;
19038;SDS011;9652;49.014;12.052;2022-12-18T07:02:45;25.00;;;13.13;;
19038;SDS011;9652;49.014;12.052;2022-12-18T07:05:13;30.30;;;14.10;;
19038;SDS011;9652;49.014;12.052;2022-12-18T07:07:40;27.63;;;15.33;;
19038;SDS011;9652;49.014;12.052;2022-12-18T07:10:08;24.83;;;12.77;;
19038;SDS011;9652;49.014;12.052;2022-12-18T07:12:35;28.37;;;13.87;;
19038;SDS011;9652;49.014;12.052;2022-12-18T07:15:03;30.10;;;14.60;;
19038;SDS011;9652;49.014;12.052;2022-12-18T07:17:31;28.30;;;14.53;;
19038;SDS011;9652;49.014;12.052;2022-12-18T07:19:59;26.27;;;13.67;;
19038;SDS011;9652;49.014;12.052;2022-12-18T07:22:27;24.27;;;12.50;;
19038;SDS011;9652;49.014;12.052;2022-12-18T07:24:54;30.70;;;14.17;;
19038;SDS011;9652;49.014;12.052;2022-12-18T07:27:22;27.50;;;13.73;;
19038;SDS011;9652;49.014;12.052;2022-12-18T07:29:49;26.73;;;13.20;;
19038;SDS011;9652;49.014;12.052;2022-12-18T07:32:16;28.33;;;13.93;;
19038;SDS011;9652;49.014;12.052;2022-12-18T07:34:43;24.70;;;13.80;;
19038;SDS011;9652;49.014;12.052;2022-12-18T07:37:10;25.17;;;13.63;;
19038;SDS011;9652;49.014;12.052;2022-12-18T07:39:39;27.77;;;13.90;;
19038;SDS011;9652;49.014;12.052;2022-12-18T07:42:06;27.20;;;13.90;;
19038;SDS011;9652;49.014;12.052;2022-12-18T07:44:51;24.57;;;14.10;;
19038;SDS011;9652;49.014;12.052;2022-12-18T07:47:18;29.50;;;13.77;;
19038;SDS011;9652;49.014;12.052;2022-12-18T07:49:45;26.50;;;12.57;;
19038;SDS011;9652;49.014;12.052;2022-12-18T07:52:12;28.90;;;13.93;;
19038;SDS011;9652;49.014;12.052;2022-12-18T07:54:40;27.40;;;14.27;;
19038;SDS011;9652;49.014;12.052;2022-12-18T07:57:08;29.30;;;14.17;;
19038;SDS011;9652;49.014;12.052;2022-12-18T07:59:35;26.13;;;12.80;;
19038;SDS011;9652;49.014;12.052;2022-12-18T08:02:02;26.07;;;13.67;;
19038;SDS011;9652;49.014;12.052;2022-12-18T08:04:29;28.20;;;13.50;;
19038;SDS011;9652;49.014;12.052;2022-12-18T08:06:56;32.07;;;15.60;;
19038;SDS011;9652;49.014;12.052;2022-12-18T08:09:23;29.10;;;14.03;;
19038;SDS011;9652;49.014;12.052;2022-12-18T08:11:52;25.43;;;13.30;;
19038;SDS011;9652;49.014;12.052;2022-12-18T08:14:19;26.27;;;13.70;;
19038;SDS011;9652;49.014;12.052;2022-12-18T08:16:46;22.93;;;12.70;;
19038;SDS011;9652;49.014;12.052;2022-12-18T08:19:13;29.47;;;14.23;;
19038;SDS011;9652;49.014;12.052;2022-12-18T08:21:40;25.47;;;13.63;;
19038;SDS011;9652;49.014;12.052;2022-12-18T08:24:08;24.50;;;12.80;;
19038;SDS011;9652;49.014;12.052;2022-12-18T08:26:36;26.70;;;12.67;;
19038;SDS011;9652;49.014;12.052;2022-12-18T08:29:04;23.87;;;11.87;;
19038;SDS011;9652;49.014;12.052;2022-12-18T08:31:31;21.37;;;12.27;;
19038;SDS011;9652;49.014;12.052;2022-12-18T08:33:59;21.97;;;13.20;;
19038;SDS011;9652;49.014;12.052;2022-12-18T08:36:26;21.97;;;11.60;;
19038;SDS011;9652;49.014;12.052;2022-12-18T08:38:54;22.33;;;12.40;;
19038;SDS011;9652;49.014;12.052;2022-12-18T08:41:22;25.87;;;12.73;;
19038;SDS011;9652;49.014;12.052;2022-12-18T08:43:50;23.37;;;12.67;;
19038;SDS011;9652;49.014;12.052;2022-12-18T08:46:37;23.20;;;13.30;;
19038;SDS011;9652;49.014;12.052;2022-12-18T08:49:07;23.40;;;11.93;;
19038;SDS011;9652;49.014;12.052;2022-12-18T08:51:36;21.23;;;12.20;;
19038;SDS011;9652;49.014;12.052;2022-12-18T08:54:04;20.60;;;12.23;;
19038;SDS011;9652;49.014;12.052;2022-12-18T08:56:32;29.07;;;13.70;;
19038;SDS011;9652;49.014;12.052;2022-12-18T08:59:00;30.60;;;13.07;;
19038;SDS011;9652;49.014;12.052;2022-12-18T09:01:27;29.10;;;12.97;;
19038;SDS011;9652;49.014;12.052;2022-12-18T09:03:56;19.37;;;12.13;;
19038;SDS011;9652;49.014;12.052;2022-12-18T09:06:23;22.40;;;12.17;;
19038;SDS011;9652;49.014;12.052;2022-12-18T09:08:51;20.60;;;11.80;;
19038;SDS011;9652;49.014;12.052;2022-12-18T09:11:20;20.20;;;10.23;;
19038;SDS011;9652;49.014;12.052;2022-12-18T09:13:49;20.90;;;10.83;;
19038;SDS011;9652;49.014;12.052;2022-12-18T09:16:16;16.80;;;11.30;;
19038;SDS011;9652;49.014;12.052;2022-12-18T09:18:44;20.27;;;11.13;;
19038;SDS011;9652;49.014;12.052;2022-12-18T09:21:14;21.33;;;11.97;;
19038;SDS011;9652;49.014;12.052;2022-12-18T09:23:48;22.83;;;12.10;;
19038;SDS011;9652;49.014;12.052;2022-12-18T09:26:16;17.43;;;10.97;;
19038;SDS011;9652;49.014;12.052;2022-12-18T09:28:44;22.87;;;12.13;;
19038;SDS011;9652;49.014;12.052;2022-12-18T09:31:12;21.83;;;12.23;;
19038;SDS011;9652;49.014;12.052;2022-12-18T09:33:40;19.93;;;11.13;;
19038;SDS011;9652;49.014;12.052;2022-12-18T09:36:09;21.63;;;12.53;;
19038;SDS011;9652;49.014;12.052;2022-12-18T09:38:42;19.90;;;11.93;;
19038;SDS011;9652;49.014;12.052;2022-12-18T09:41:15;21.00;;;11.17;;
19038;SDS011;9652;49.014;12.052;2022-12-18T09:44:10;21.80;;;11.80;;
19038;SDS011;9652;49.014;12.052;2022-12-18T09:46:50;21.10;;;11.23;;
19038;SDS011;9652;49.014;12.052;2022-12-18T09:49:56;21.37;;;12.37;;
19038;SDS011;9652;49.014;12.052;2022-12-18T09:52:30;20.33;;;11.60;;
19038;SDS011;9652;49.014;12.052;2022-12-18T09:55:05;24.97;;;13.67;;
19038;SDS011;9652;49.014;12.052;2022-12-18T09:57:47;19.10;;;11.73;;
19038;SDS011;9652;49.014;12.052;2022-12-18T10:00:22;20.27;;;12.17;;
19038;SDS011;9652;49.014;12.052;2022-12-18T10:02:52;19.83;;;11.40;;
19038;SDS011;9652;49.014;12.052;2022-12-18T10:05:30;17.27;;;10.83;;
19038;SDS011;9652;49.014;12.052;2022-12-18T10:08:10;17.73;;;11.17;;
19038;SDS011;9652;49.014;12.052;2022-12-18T10:10:48;22.83;;;12.47;;
19038;SDS011;9652;49.014;12.052;2022-12-18T10:13:21;22.70;;;12.60;;
19038;SDS011;9652;49.014;12.052;2022-12-18T10:16:03;22.80;;;11.90;;
19038;SDS011;9652;49.014;12.052;2022-12-18T10:18:51;21.17;;;12.17;;
19038;SDS011;9652;49.014;12.052;2022-12-18T10:21:55;23.07;;;13.13;;
19038;SDS011;9652;49.014;12.052;2022-12-18T10:24:37;23.77;;;12.13;;
19038;SDS011;9652;49.014;12.052;2022-12-18T10:27:12;20.90;;;12.50;;
19038;SDS011;9652;49.014;12.052;2022-12-18T10:29:43;19.00;;;10.97;;
19038;SDS011;9652;49.014;12.052;2022-12-18T10:32:13;21.17;;;11.93;;
19038;SDS011;9652;49.014;12.052;2022-12-18T10:34:47;20.70;;;12.50;;
19038;SDS011;9652;49.014;12.052;2022-12-18T10:37:17;20.57;;;12.20;;
19038;SDS011;9652;49.014;12.052;2022-12-18T10:40:04;24.80;;;12.40;;
19038;SDS011;9652;49.014;12.052;2022-12-18T10:42:36;21.10;;;11.63;;
19038;SDS011;9652;49.014;12.052;2022-12-18T10:45:08;17.83;;;11.10;;
19038;SDS011;9652;49.014;12.052;2022-12-18T10:47:41;24.17;;;11.57;;
19038;SDS011;9652;49.014;12.052;2022-12-18T10:50:18;20.50;;;11.70;;
19038;SDS011;9652;49.014;12.052;2022-12-18T10:52:54;19.83;;;11.93;;
19038;SDS011;9652;49.014;12.052;2022-12-18T10:55:25;22.10;;;12.13;;
19038;SDS011;9652;49.014;12.052;2022-12-18T10:58:12;24.23;;;10.93;;
19038;SDS011;9652;49.014;12.052;2022-12-18T11:00:51;21.63;;;12.03;;
19038;SDS011;9652;49.014;12.052;2022-12-18T11:03:37;17.80;;;11.70;;
19038;SDS011;9652;49.014;12.052;2022-12-18T11:06:08;20.10;;;12.67;;
19038;SDS011;9652;49.014;12.052;2022-12-18T11:08:38;17.23;;;10.83;;
19038;SDS011;9652;49.014;12.052;2022-12-18T11:11:18;23.57;;;12.47;;
19038;SDS011;9652;49.014;12.052;2022-12-18T11:13:53;18.80;;;11.23;;
19038;SDS011;9652;49.014;12.052;2022-12-18T11:16:29;19.77;;;11.63;;
19038;SDS011;9652;49.014;12.052;2022-12-18T11:19:10;24.97;;;12.77;;
19038;SDS011;9652;49.014;12.052;2022-12-18T11:21:54;19.57;;;11.03;;
19038;SDS011;9652;49.014;12.052;2022-12-18T11:24:25;19.07;;;11.57;;
19038;SDS011;9652;49.014;12.052;2022-12-18T11:27:00;19.50;;;12.00;;
19038;SDS011;9652;49.014;12.052;2022-12-18T11:29:33;21.27;;;11.60;;
19038;SDS011;9652;49.014;12.052;2022-12-18T11:32:14;20.43;;;11.97;;
19038;SDS011;9652;49.014;12.052;2022-12-18T11:35:03;22.57;;;12.30;;
19038;SDS011;9652;49.014;12.052;2022-12-18T11:37:43;18.90;;;11.93;;
19038;SDS011;9652;49.014;12.052;2022-12-18T11:40:17;24.17;;;12.80;;
19038;SDS011;9652;49.014;12.052;2022-12-18T11:42:54;21.23;;;12.13;;
19038;SDS011;9652;49.014;12.052;2022-12-18T11:45:29;17.40;;;10.67;;
19038;SDS011;9652;49.014;12.052;2022-12-18T11:48:03;22.27;;;11.03;;
19038;SDS011;9652;49.014;12.052;2022-12-18T11:50:44;17.20;;;11.23;;
19038;SDS011;9652;49.014;12.052;2022-12-18T11:53:17;22.47;;;12.47;;
19038;SDS011;9652;49.014;12.052;2022-12-18T11:55:48;23.23;;;12.00;;
19038;SDS011;9652;49.014;12.052;2022-12-18T11:58:40;21.07;;;12.40;;
19038;SDS011;9652;49.014;12.052;2022-12-18T12:01:16;19.83;;;11.43;;
19038;SDS011;9652;49.014;12.052;2022-12-18T12:07:15;24.17;;;11.83;;
19038;SDS011;9652;49.014;12.052;2022-12-18T12:10:06;22.20;;;12.30;;
19038;SDS011;9652;49.014;12.052;2022-12-18T12:12:51;21.30;;;12.47;;
19038;SDS011;9652;49.014;12.052;2022-12-18T12:15:39;20.57;;;11.57;;
19038;SDS011;9652;49.014;12.052;2022-12-18T12:18:24;23.50;;;11.83;;
19038;SDS011;9652;49.014;12.052;2022-12-18T12:21:08;21.37;;;12.10;;
19038;SDS011;9652;49.014;12.052;2022-12-18T12:23:43;19.50;;;12.43;;
19038;SDS011;9652;49.014;12.052;2022-12-18T12:26:22;21.20;;;13.37;;
19038;SDS011;9652;49.014;12.052;2022-12-18T12:29:00;20.70;;;12.23;;
19038;SDS011;9652;49.014;12.052;2022-12-18T12:31:50;19.77;;;12.33;;
19038;SDS011;9652;49.014;12.052;2022-12-18T12:34:31;22.23;;;12.37;;
19038;SDS011;9652;49.014;12.052;2022-12-18T12:37:15;18.97;;;10.63;;
19038;SDS011;9652;49.014;12.052;2022-12-18T12:39:53;24.23;;;11.77;;
19038;SDS011;9652;49.014;12.052;2022-12-18T12:42:24;22.20;;;12.10;;
19038;SDS011;9652;49.014;12.052;2022-12-18T12:45:19;20.43;;;11.27;;
19038;SDS011;9652;49.014;12.052;2022-12-18T12:47:55;19.17;;;11.40;;
19038;SDS011;9652;49.014;12.052;2022-12-18T12:50:25;19.70;;;12.90;;
19038;SDS011;9652;49.014;12.052;2022-12-18T12:52:53;20.47;;;11.23;;
19038;SDS011;9652;49.014;12.052;2022-12-18T12:55:24;16.43;;;10.57;;
19038;SDS011;9652;49.014;12.052;2022-12-18T12:57:56;22.90;;;12.17;;
19038;SDS011;9652;49.014;12.052;2022-12-18T13:00:36;17.80;;;11.17;;
19038;SDS011;9652;49.014;12.052;2022-12-18T13:03:14;20.07;;;11.90;;
19038;SDS011;9652;49.014;12.052;2022-12-18T13:05:54;19.00;;;10.77;;
19038;SDS011;9652;49.014;12.052;2022-12-18T13:08:29;19.00;;;12.10;;
19038;SDS011;9652;49.014;12.052;2022-12-18T13:11:27;23.47;;;12.17;;
19038;SDS011;9652;49.014;12.052;2022-12-18T13:14:21;19.07;;;11.57;;
19038;SDS011;9652;49.014;12.052;2022-12-18T13:19:47;22.73;;;11.73;;
19038;SDS011;9652;49.014;12.052;2022-12-18T13:22:21;21.87;;;12.47;;
19038;SDS011;9652;49.014;12.052;2022-12-18T13:24:50;21.60;;;12.27;;
19038;SDS011;9652;49.014;12.052;2022-12-18T13:30:43;21.23;;;13.13;;
19038;SDS011;9652;49.014;12.052;2022-12-18T13:36:14;19.57;;;11.87;;
19038;SDS011;9652;49.014;12.052;2022-12-18T13:41:49;21.00;;;12.47;;
19038;SDS011;9652;49.014;12.052;2022-12-18T13:44:23;22.17;;;11.30;;
19038;SDS011;9652;49.014;12.052;2022-12-18T13:46:59;18.57;;;12.00;;
19038;SDS011;9652;49.014;12.052;2022-12-18T13:49:30;18.80;;;12.13;;
19038;SDS011;9652;49.014;12.052;2022-12-18T13:52:16;21.63;;;13.23;;
19038;SDS011;9652;49.014;12.052;2022-12-18T13:54:49;20.37;;;12.13;;
19038;SDS011;9652;49.014;12.052;2022-12-18T13:57:26;20.70;;;11.77;;
19038;SDS011;9652;49.014;12.052;2022-12-18T13:59:55;22.03;;;12.03;;
19038;SDS011;9652;49.014;12.052;2022-12-18T14:02:24;20.33;;;12.60;;
19038;SDS011;9652;49.014;12.052;2022-12-18T14:04:53;20.57;;;12.57;;
19038;SDS011;9652;49.014;12.052;2022-12-18T14:07:23;19.03;;;11.93;;
19038;SDS011;9652;49.014;12.052;2022-12-18T14:09:52;20.27;;;11.17;;
19038;SDS011;9652;49.014;12.052;2022-12-18T14:12:22;20.63;;;12.20;;
19038;SDS011;9652;49.014;12.052;2022-12-18T14:15:19;23.43;;;13.43;;
19038;SDS011;9652;49.014;12.052;2022-12-18T14:17:54;20.77;;;12.43;;
19038;SDS011;9652;49.014;12.052;2022-12-18T14:20:25;22.83;;;12.23;;
19038;SDS011;9652;49.014;12.052;2022-12-18T14:22:57;19.30;;;11.80;;
19038;SDS011;9652;49.014;12.052;2022-12-18T14:25:25;25.07;;;11.90;;
19038;SDS011;9652;49.014;12.052;2022-12-18T14:28:02;28.00;;;12.90;;
19038;SDS011;9652;49.014;12.052;2022-12-18T14:30:42;20.80;;;12.27;;
19038;SDS011;9652;49.014;12.052;2022-12-18T14:33:11;19.53;;;11.97;;
19038;SDS011;9652;49.014;12.052;2022-12-18T14:35:42;21.23;;;13.33;;
19038;SDS011;9652;49.014;12.052;2022-12-18T14:38:22;22.23;;;12.47;;
19038;SDS011;9652;49.014;12.052;2022-12-18T14:40:53;24.13;;;12.97;;
19038;SDS011;9652;49.014;12.052;2022-12-18T14:43:23;21.83;;;13.03;;
19038;SDS011;9652;49.014;12.052;2022-12-18T14:45:51;22.93;;;14.33;;
19038;SDS011;9652;49.014;12.052;2022-12-18T14:48:19;26.83;;;13.40;;
19038;SDS011;9652;49.014;12.052;2022-12-18T14:50:56;23.97;;;13.80;;
19038;SDS011;9652;49.014;12.052;2022-12-18T14:53:36;21.63;;;12.70;;
19038;SDS011;9652;49.014;12.052;2022-12-18T14:56:16;28.57;;;13.87;;
19038;SDS011;9652;49.014;12.052;2022-12-18T14:58:47;26.73;;;13.33;;
19038;SDS011;9652;49.014;12.052;2022-12-18T15:01:21;25.30;;;14.27;;
19038;SDS011;9652;49.014;12.052;2022-12-18T15:03:53;23.40;;;14.13;;
19038;SDS011;9652;49.014;12.052;2022-12-18T15:06:24;24.73;;;14.07;;
19038;SDS011;9652;49.014;12.052;2022-12-18T15:08:57;24.17;;;14.13;;